createdAt,value
2023-04-25T00:00:17.801Z,2.20
2023-04-25T00:02:44.843Z,2.30
2023-04-25T00:05:13.252Z,2.38
2023-04-25T00:07:40.403Z,2.45
2023-04-25T00:10:08.634Z,2.35
2023-04-25T00:12:36.794Z,2.45
2023-04-25T00:15:04.350Z,2.25
2023-04-25T00:17:32.210Z,2.78
2023-04-25T00:19:59.330Z,2.60
2023-04-25T00:22:26.297Z,4.15
2023-04-25T00:24:54.406Z,2.47
2023-04-25T00:27:21.452Z,2.47
2023-04-25T00:29:48.528Z,3.30
2023-04-25T00:32:15.506Z,3.17
2023-04-25T00:34:42.521Z,2.70
2023-04-25T00:37:09.468Z,3.58
2023-04-25T00:39:36.430Z,2.50
2023-04-25T00:42:04.133Z,2.90
2023-04-25T00:44:33.072Z,2.55
2023-04-25T00:47:02.620Z,2.65
2023-04-25T00:49:29.571Z,4.18
2023-04-25T00:51:57.399Z,9.43
2023-04-25T00:54:24.720Z,8.50
2023-04-25T00:56:52.075Z,10.35
2023-04-25T00:59:21.369Z,7.45
2023-04-25T01:01:48.610Z,4.90
2023-04-25T01:04:15.900Z,3.90
2023-04-25T01:06:43.077Z,3.75
2023-04-25T01:09:11.049Z,2.92
2023-04-25T01:11:38.067Z,3.40
2023-04-25T01:14:05.427Z,3.63
2023-04-25T01:16:34.031Z,2.90
2023-04-25T01:19:01.259Z,2.95
2023-04-25T01:21:30.712Z,3.53
2023-04-25T01:23:58.519Z,2.95
2023-04-25T01:26:26.138Z,6.18
2023-04-25T01:28:53.357Z,2.97
2023-04-25T01:31:21.088Z,3.45
2023-04-25T01:33:49.509Z,2.97
2023-04-25T01:36:17.278Z,3.03
2023-04-25T01:38:45.012Z,2.72
2023-04-25T01:41:12.219Z,3.13
2023-04-25T01:43:39.488Z,2.65
2023-04-25T01:46:07.122Z,2.60
2023-04-25T01:48:34.159Z,3.13
2023-04-25T01:51:01.171Z,2.97
2023-04-25T01:53:29.474Z,2.75
2023-04-25T01:55:56.934Z,3.55
2023-04-25T01:58:27.236Z,2.97
2023-04-25T02:01:08.456Z,5.68
2023-04-25T02:03:42.885Z,3.25
2023-04-25T02:06:18.561Z,4.03
2023-04-25T02:08:47.798Z,3.00
2023-04-25T02:11:16.776Z,3.03
2023-04-25T02:13:54.559Z,2.70
2023-04-25T02:16:41.988Z,2.67
2023-04-25T02:19:09.014Z,3.05
2023-04-25T02:21:36.692Z,2.92
2023-04-25T02:24:05.537Z,4.60
2023-04-25T02:26:32.506Z,3.33
2023-04-25T02:28:59.629Z,2.75
2023-04-25T02:31:27.018Z,2.17
2023-04-25T02:33:54.088Z,2.45
2023-04-25T02:36:21.062Z,2.60
2023-04-25T02:38:49.409Z,2.80
2023-04-25T02:41:16.386Z,2.72
2023-04-25T02:43:43.296Z,2.35
2023-04-25T02:46:10.659Z,2.53
2023-04-25T02:48:37.660Z,3.25
2023-04-25T02:51:04.672Z,2.63
2023-04-25T02:53:31.783Z,3.33
2023-04-25T02:56:00.203Z,2.55
2023-04-25T02:58:27.308Z,2.75
2023-04-25T03:00:55.734Z,2.30
2023-04-25T03:03:23.256Z,2.90
2023-04-25T03:05:52.225Z,2.67
2023-04-25T03:08:23.923Z,3.28
2023-04-25T03:10:52.335Z,3.22
2023-04-25T03:13:19.558Z,2.65
2023-04-25T03:15:47.039Z,2.40
2023-04-25T03:18:14.107Z,3.08
2023-04-25T03:20:42.706Z,3.70
2023-04-25T03:23:09.959Z,2.78
2023-04-25T03:25:37.668Z,3.63
2023-04-25T03:28:05.268Z,3.00
2023-04-25T03:30:32.706Z,3.67
2023-04-25T03:33:00.347Z,4.53
2023-04-25T03:35:27.475Z,3.38
2023-04-25T03:37:55.270Z,2.78
2023-04-25T03:40:27.548Z,2.83
2023-04-25T03:43:13.152Z,2.67
2023-04-25T03:45:44.832Z,4.05
2023-04-25T03:48:13.119Z,2.85
2023-04-25T03:50:40.218Z,2.80
2023-04-25T03:53:07.467Z,2.83
2023-04-25T03:55:54.396Z,4.50
2023-04-25T03:58:21.387Z,2.97
2023-04-25T04:00:48.721Z,3.00
2023-04-25T04:03:15.894Z,3.25
2023-04-25T04:05:43.050Z,3.15
2023-04-25T04:08:10.041Z,2.72
2023-04-25T04:10:38.696Z,2.95
2023-04-25T04:13:05.796Z,3.65
2023-04-25T04:15:33.938Z,3.05
2023-04-25T04:18:03.715Z,3.72
2023-04-25T04:20:31.517Z,3.33
2023-04-25T04:22:58.590Z,3.83
2023-04-25T04:25:27.127Z,4.00
2023-04-25T04:28:05.941Z,3.17
2023-04-25T04:30:56.476Z,3.70
2023-04-25T04:33:24.468Z,4.15
2023-04-25T04:35:57.384Z,3.55
2023-04-25T04:38:24.874Z,3.45
2023-04-25T04:40:53.426Z,3.38
2023-04-25T04:43:26.031Z,3.25
2023-04-25T04:46:25.589Z,3.92
2023-04-25T04:49:14.595Z,3.55
2023-04-25T04:51:56.832Z,3.42
2023-04-25T04:54:38.170Z,3.72
2023-04-25T04:57:25.707Z,3.83
2023-04-25T05:00:19.140Z,3.92
2023-04-25T05:03:04.696Z,5.05
2023-04-25T05:06:01.080Z,3.38
2023-04-25T05:08:27.984Z,4.07
2023-04-25T05:13:59.241Z,5.70
2023-04-25T05:16:46.513Z,4.15
2023-04-25T05:19:33.223Z,3.90
2023-04-25T05:22:16.368Z,4.25
2023-04-25T05:25:10.668Z,4.10
2023-04-25T05:27:56.083Z,3.75
2023-04-25T05:30:36.610Z,3.35
2023-04-25T05:33:08.145Z,3.78
2023-04-25T05:35:35.620Z,3.65
2023-04-25T05:38:02.631Z,3.22
2023-04-25T05:40:49.832Z,3.63
2023-04-25T05:43:36.044Z,3.55
2023-04-25T05:46:18.087Z,3.45
2023-04-25T05:49:15.986Z,3.05
2023-04-25T05:51:57.946Z,3.78
2023-04-25T05:54:38.499Z,3.53
2023-04-25T05:57:05.549Z,4.03
2023-04-25T05:59:32.998Z,3.85
2023-04-25T06:02:01.753Z,3.35
2023-04-25T06:04:29.712Z,3.70
2023-04-25T06:06:56.782Z,4.50
2023-04-25T06:09:24.295Z,4.05
2023-04-25T06:11:54.110Z,4.10
2023-04-25T06:14:27.696Z,4.93
2023-04-25T06:16:56.169Z,4.00
2023-04-25T06:19:23.148Z,3.63
2023-04-25T06:21:50.105Z,4.47
2023-04-25T06:24:17.318Z,5.20
2023-04-25T06:26:45.327Z,4.80
2023-04-25T06:29:12.606Z,4.00
2023-04-25T06:31:39.603Z,4.50
2023-04-25T06:34:06.709Z,4.75
2023-04-25T06:39:11.742Z,3.95
2023-04-25T06:41:38.699Z,4.53
2023-04-25T06:44:08.204Z,4.70
2023-04-25T06:46:40.410Z,4.68
2023-04-25T06:49:07.591Z,4.40
2023-04-25T06:51:34.645Z,4.45
2023-04-25T06:54:01.753Z,4.45
2023-04-25T06:56:35.881Z,5.40
2023-04-25T06:59:08.560Z,4.72
2023-04-25T07:01:38.002Z,5.05
2023-04-25T07:04:10.366Z,4.70
2023-04-25T07:06:43.675Z,5.82
2023-04-25T07:09:11.722Z,5.60
2023-04-25T07:11:39.261Z,5.78
2023-04-25T07:14:06.201Z,5.10
2023-04-25T07:16:34.461Z,4.85
2023-04-25T07:19:02.828Z,5.32
2023-04-25T07:21:31.883Z,5.63
2023-04-25T07:24:01.757Z,5.60
2023-04-25T07:26:34.383Z,6.22
2023-04-25T07:29:31.289Z,8.70
2023-04-25T07:32:00.122Z,7.88
2023-04-25T07:34:27.139Z,6.50
2023-04-25T07:36:54.705Z,5.80
2023-04-25T07:39:24.057Z,9.23
2023-04-25T07:41:53.742Z,8.02
2023-04-25T07:44:25.505Z,8.27
2023-04-25T07:46:52.703Z,7.85
2023-04-25T07:49:19.923Z,7.85
2023-04-25T07:51:46.996Z,9.23
2023-04-25T07:54:18.244Z,7.25
2023-04-25T07:56:53.277Z,7.50
2023-04-25T07:59:23.931Z,10.25
2023-04-25T08:01:51.393Z,5.40
2023-04-25T08:04:20.278Z,6.75
2023-04-25T08:06:53.782Z,6.75
2023-04-25T08:09:25.106Z,6.55
2023-04-25T08:11:53.383Z,7.93
2023-04-25T08:14:26.199Z,5.50
2023-04-25T08:16:53.532Z,7.43
2023-04-25T08:19:21.304Z,6.60
2023-04-25T08:21:48.723Z,7.80
2023-04-25T08:24:21.051Z,6.75
2023-04-25T08:26:48.019Z,6.55
2023-04-25T08:29:20.896Z,7.88
2023-04-25T08:31:48.935Z,5.80
2023-04-25T08:34:16.237Z,6.72
2023-04-25T08:36:48.883Z,7.13
2023-04-25T08:39:23.928Z,6.13
2023-04-25T08:42:16.767Z,9.63
2023-04-25T08:44:48.340Z,6.47
2023-04-25T08:49:50.475Z,6.80
2023-04-25T08:52:25.265Z,8.77
2023-04-25T08:54:55.233Z,7.82
2023-04-25T08:57:22.754Z,10.80
2023-04-25T08:59:50.818Z,6.43
2023-04-25T09:02:20.796Z,7.10
2023-04-25T09:04:51.251Z,5.35
2023-04-25T09:07:22.043Z,8.63
2023-04-25T09:09:49.063Z,9.05
2023-04-25T09:12:20.906Z,7.65
2023-04-25T09:15:08.522Z,5.57
2023-04-25T09:18:00.396Z,6.88
2023-04-25T09:20:56.362Z,8.63
2023-04-25T09:23:28.494Z,11.27
2023-04-25T09:25:55.600Z,7.25
2023-04-25T09:28:30.077Z,8.60
2023-04-25T09:30:59.226Z,8.38
2023-04-25T09:33:35.839Z,7.57
2023-04-25T09:36:14.579Z,4.80
2023-04-25T09:39:17.251Z,6.82
2023-04-25T09:41:55.658Z,4.32
2023-04-25T09:44:26.094Z,6.57
2023-04-25T09:46:54.671Z,7.90
2023-04-25T09:49:27.188Z,5.20
2023-04-25T09:52:26.028Z,5.00
2023-04-25T09:55:13.586Z,4.82
2023-04-25T09:57:41.790Z,9.23
2023-04-25T10:00:13.137Z,7.03
2023-04-25T10:02:47.709Z,4.53
2023-04-25T10:05:33.886Z,5.63
2023-04-25T10:08:05.400Z,4.78
2023-04-25T10:10:37.078Z,5.57
2023-04-25T10:13:06.538Z,13.02
2023-04-25T10:15:39.676Z,7.20
2023-04-25T10:18:08.203Z,5.50
2023-04-25T10:20:35.294Z,5.72
2023-04-25T10:23:16.279Z,6.50
2023-04-25T10:28:10.761Z,4.97
2023-04-25T10:30:37.917Z,6.32
2023-04-25T10:33:19.498Z,9.80
2023-04-25T10:35:46.907Z,4.88
2023-04-25T10:38:15.810Z,7.10
2023-04-25T10:40:42.810Z,7.07
2023-04-25T10:43:41.289Z,6.95
2023-04-25T10:46:38.444Z,7.85
2023-04-25T10:49:05.477Z,6.70
2023-04-25T10:51:47.210Z,5.05
2023-04-25T10:54:22.825Z,6.00
2023-04-25T10:56:50.519Z,5.72
2023-04-25T10:59:19.723Z,7.05
2023-04-25T11:01:53.979Z,4.50
2023-04-25T11:04:34.851Z,4.85
2023-04-25T11:07:10.852Z,4.63
2023-04-25T11:09:41.787Z,4.95
2023-04-25T11:14:37.438Z,3.75
2023-04-25T11:17:04.442Z,5.70
2023-04-25T11:19:31.650Z,4.10
2023-04-25T11:22:02.935Z,2.75
2023-04-25T11:24:32.022Z,3.47
2023-04-25T11:27:00.350Z,5.47
2023-04-25T11:29:32.153Z,5.40
2023-04-25T11:31:59.589Z,4.45
2023-04-25T11:34:27.199Z,4.32
2023-04-25T11:36:54.688Z,4.57
2023-04-25T11:39:22.209Z,5.38
2023-04-25T11:41:49.192Z,4.93
2023-04-25T11:44:20.625Z,5.65
2023-04-25T11:46:48.349Z,4.88
2023-04-25T11:49:16.479Z,4.57
2023-04-25T11:51:45.578Z,3.67
2023-04-25T11:54:13.808Z,4.22
2023-04-25T11:56:45.721Z,5.25
2023-04-25T11:59:14.069Z,3.85
2023-04-25T12:01:50.557Z,3.88
2023-04-25T12:04:22.899Z,6.93
2023-04-25T12:06:53.197Z,7.10
2023-04-25T12:09:31.106Z,5.05
2023-04-25T12:12:00.223Z,3.65
2023-04-25T12:14:29.954Z,3.03
2023-04-25T12:16:59.118Z,3.75
2023-04-25T12:19:26.943Z,3.33
2023-04-25T12:21:58.585Z,3.53
2023-04-25T12:24:28.752Z,3.85
2023-04-25T12:27:10.828Z,3.92
2023-04-25T12:29:49.236Z,3.47
2023-04-25T12:32:17.839Z,4.53
2023-04-25T12:34:45.922Z,5.00
2023-04-25T12:37:13.491Z,6.07
2023-04-25T12:39:40.517Z,2.15
2023-04-25T12:42:09.673Z,4.90
2023-04-25T12:44:37.252Z,3.25
2023-04-25T12:47:05.197Z,2.92
2023-04-25T12:49:32.980Z,3.45
2023-04-25T12:51:59.993Z,3.92
2023-04-25T12:54:27.158Z,3.60
2023-04-25T12:56:54.339Z,3.25
2023-04-25T12:59:22.133Z,5.95
2023-04-25T13:01:49.252Z,3.40
2023-04-25T13:04:16.953Z,3.45
2023-04-25T13:06:44.320Z,2.67
2023-04-25T13:09:13.101Z,3.80
2023-04-25T13:11:41.409Z,5.03
2023-04-25T13:14:08.776Z,4.45
2023-04-25T13:16:35.901Z,4.38
2023-04-25T13:19:03.045Z,6.18
2023-04-25T13:21:33.437Z,3.17
2023-04-25T13:24:00.557Z,3.40
2023-04-25T13:26:27.657Z,3.42
2023-04-25T13:28:54.631Z,2.55
2023-04-25T13:31:21.885Z,3.03
2023-04-25T13:33:49.019Z,2.70
2023-04-25T13:36:16.119Z,4.13
2023-04-25T13:38:44.872Z,4.35
2023-04-25T13:41:16.530Z,3.80
2023-04-25T13:43:43.511Z,3.67
2023-04-25T13:46:24.850Z,2.35
2023-04-25T13:49:06.201Z,6.22
2023-04-25T13:51:37.224Z,3.53
2023-04-25T13:54:04.360Z,2.92
2023-04-25T13:56:31.387Z,3.80
2023-04-25T13:58:58.325Z,4.57
2023-04-25T14:01:25.384Z,7.05
2023-04-25T14:03:52.627Z,4.63
2023-04-25T14:06:23.758Z,3.20
2023-04-25T14:08:53.463Z,2.45
2023-04-25T14:11:20.374Z,2.95
2023-04-25T14:13:48.621Z,3.05
2023-04-25T14:16:16.998Z,5.32
2023-04-25T14:18:43.977Z,3.67
2023-04-25T14:21:10.952Z,4.10
2023-04-25T14:23:37.900Z,3.58
2023-04-25T14:26:05.088Z,4.75
2023-04-25T14:28:32.467Z,3.78
2023-04-25T14:30:59.421Z,5.35
2023-04-25T14:33:26.487Z,2.90
2023-04-25T14:35:53.892Z,3.50
2023-04-25T14:38:24.079Z,4.32
2023-04-25T14:40:51.460Z,5.55
2023-04-25T14:43:18.653Z,5.30
2023-04-25T14:45:46.292Z,4.47
2023-04-25T14:48:13.604Z,3.80
2023-04-25T14:50:40.819Z,4.80
2023-04-25T14:53:07.809Z,5.95
2023-04-25T14:55:34.765Z,4.43
2023-04-25T14:58:01.987Z,3.30
2023-04-25T15:00:29.207Z,3.42
2023-04-25T15:02:57.177Z,6.05
2023-04-25T15:05:24.530Z,2.80
2023-04-25T15:07:51.518Z,4.10
2023-04-25T15:10:19.525Z,2.75
2023-04-25T15:12:47.818Z,2.83
2023-04-25T15:15:22.754Z,4.15
2023-04-25T15:17:53.079Z,3.38
2023-04-25T15:20:20.161Z,3.30
2023-04-25T15:22:49.565Z,3.35
2023-04-25T15:25:20.837Z,4.18
2023-04-25T15:27:49.379Z,3.50
2023-04-25T15:30:18.214Z,3.55
2023-04-25T15:32:46.795Z,3.97
2023-04-25T15:35:15.800Z,3.63
2023-04-25T15:37:43.057Z,2.78
2023-04-25T15:40:14.676Z,4.90
2023-04-25T15:42:48.176Z,3.70
2023-04-25T15:45:17.721Z,5.32
2023-04-25T15:47:45.520Z,5.88
2023-04-25T15:50:14.835Z,4.15
2023-04-25T15:52:42.058Z,5.38
2023-04-25T15:55:10.434Z,2.85
2023-04-25T15:57:37.448Z,3.42
2023-04-25T16:00:11.098Z,3.78
2023-04-25T16:02:40.983Z,2.60
2023-04-25T16:05:09.119Z,4.60
2023-04-25T16:07:36.739Z,4.07
2023-04-25T16:10:04.292Z,3.85
2023-04-25T16:12:31.797Z,2.85
2023-04-25T16:14:58.768Z,5.53
2023-04-25T16:17:27.975Z,3.50
2023-04-25T16:19:55.233Z,3.67
2023-04-25T16:22:22.406Z,2.97
2023-04-25T16:24:49.366Z,2.60
2023-04-25T16:27:16.405Z,3.35
2023-04-25T16:29:43.356Z,5.03
2023-04-25T16:32:10.891Z,3.53
2023-04-25T16:34:37.811Z,4.75
2023-04-25T16:37:04.750Z,1.92
2023-04-25T16:39:31.658Z,2.17
2023-04-25T16:41:58.554Z,3.28
2023-04-25T16:44:25.536Z,2.67
2023-04-25T16:46:52.488Z,3.55
2023-04-25T16:49:19.443Z,5.72
2023-04-25T16:51:46.994Z,3.78
2023-04-25T16:54:13.979Z,2.13
2023-04-25T16:56:41.655Z,4.45
2023-04-25T16:59:08.614Z,4.00
2023-04-25T17:01:36.233Z,4.00
2023-04-25T17:04:03.458Z,4.95
2023-04-25T17:06:30.560Z,2.97
2023-04-25T17:08:57.509Z,3.97
2023-04-25T17:11:24.520Z,4.65
2023-04-25T17:13:51.541Z,3.30
2023-04-25T17:16:24.630Z,2.47
2023-04-25T17:18:52.417Z,3.33
2023-04-25T17:21:20.379Z,5.00
2023-04-25T17:23:47.457Z,5.03
2023-04-25T17:26:15.390Z,4.10
2023-04-25T17:28:44.941Z,3.90
2023-04-25T17:31:12.221Z,4.28
2023-04-25T17:33:39.334Z,3.35
2023-04-25T17:36:07.078Z,3.55
2023-04-25T17:38:35.581Z,2.80
2023-04-25T17:41:02.818Z,3.55
2023-04-25T17:43:31.380Z,3.90
2023-04-25T17:45:58.682Z,3.25
2023-04-25T17:48:26.714Z,5.90
2023-04-25T17:50:53.662Z,3.47
2023-04-25T17:53:20.641Z,3.88
2023-04-25T17:55:50.251Z,3.08
2023-04-25T17:58:17.771Z,5.38
2023-04-25T18:00:44.897Z,4.05
2023-04-25T18:03:11.999Z,2.63
2023-04-25T18:05:39.127Z,4.45
2023-04-25T18:08:06.763Z,3.28
2023-04-25T18:10:34.421Z,4.68
2023-04-25T18:13:01.752Z,5.60
2023-04-25T18:15:28.838Z,7.63
2023-04-25T18:17:57.763Z,4.47
2023-04-25T18:20:24.874Z,5.03
2023-04-25T18:22:52.078Z,4.45
2023-04-25T18:25:19.123Z,6.15
2023-04-25T18:27:46.218Z,3.97
2023-04-25T18:30:13.877Z,3.78
2023-04-25T18:32:40.881Z,6.45
2023-04-25T18:35:10.109Z,4.88
2023-04-25T18:37:37.326Z,5.22
2023-04-25T18:40:07.015Z,4.07
2023-04-25T18:42:34.045Z,9.23
2023-04-25T18:45:01.133Z,5.10
2023-04-25T18:47:28.057Z,6.18
2023-04-25T18:49:55.006Z,5.40
2023-04-25T18:52:22.742Z,7.97
2023-04-25T18:54:49.852Z,6.88
2023-04-25T18:57:17.731Z,3.47
2023-04-25T18:59:46.131Z,4.72
2023-04-25T19:02:15.941Z,4.10
2023-04-25T19:04:43.568Z,5.32
2023-04-25T19:07:10.705Z,4.28
2023-04-25T19:09:37.661Z,7.00
2023-04-25T19:12:04.970Z,5.55
2023-04-25T19:14:33.421Z,4.47
2023-04-25T19:17:00.826Z,4.25
2023-04-25T19:19:28.074Z,3.88
2023-04-25T19:21:55.164Z,4.30
2023-04-25T19:24:22.151Z,7.38
2023-04-25T19:26:49.285Z,3.70
2023-04-25T19:29:16.763Z,3.58
2023-04-25T19:31:45.457Z,4.63
2023-04-25T19:34:13.098Z,10.43
2023-04-25T19:36:42.200Z,6.07
2023-04-25T19:39:09.734Z,4.15
2023-04-25T19:41:38.656Z,3.70
2023-04-25T19:44:08.384Z,4.35
2023-04-25T19:46:36.765Z,4.43
2023-04-25T19:49:08.367Z,7.22
2023-04-25T19:51:36.218Z,6.28
2023-04-25T19:54:03.402Z,6.32
2023-04-25T19:56:30.371Z,9.57
2023-04-25T19:59:00.176Z,5.57
2023-04-25T20:01:27.333Z,5.93
2023-04-25T20:03:54.655Z,5.53
2023-04-25T20:06:22.045Z,6.28
2023-04-25T20:08:53.397Z,7.88
2023-04-25T20:11:21.474Z,5.72
2023-04-25T20:13:48.531Z,4.05
2023-04-25T20:16:20.285Z,5.53
2023-04-25T20:18:48.445Z,5.07
2023-04-25T20:21:17.898Z,4.85
2023-04-25T20:23:45.466Z,5.45
2023-04-25T20:26:12.827Z,4.05
2023-04-25T20:28:39.911Z,4.18
2023-04-25T20:31:06.976Z,4.22
2023-04-25T20:33:37.561Z,8.75
2023-04-25T20:36:05.261Z,4.55
2023-04-25T20:38:32.552Z,5.50
2023-04-25T20:40:59.582Z,5.75
2023-04-25T20:43:26.823Z,5.57
2023-04-25T20:45:54.711Z,6.60
2023-04-25T20:48:22.062Z,6.50
2023-04-25T20:50:49.080Z,5.05
2023-04-25T20:53:16.674Z,4.57
2023-04-25T20:55:44.145Z,4.40
2023-04-25T20:58:11.179Z,7.75
2023-04-25T21:00:38.928Z,5.57
2023-04-25T21:03:07.135Z,5.32
2023-04-25T21:05:34.344Z,4.28
2023-04-25T21:08:01.305Z,5.30
2023-04-25T21:10:28.255Z,5.05
2023-04-25T21:12:56.626Z,6.32
2023-04-25T21:15:24.632Z,5.43
2023-04-25T21:17:52.327Z,4.47
2023-04-25T21:20:21.492Z,7.53
2023-04-25T21:22:53.002Z,5.35
2023-04-25T21:25:30.735Z,4.63
2023-04-25T21:27:59.356Z,3.83
2023-04-25T21:30:26.938Z,3.65
2023-04-25T21:32:54.087Z,5.22
2023-04-25T21:35:22.707Z,3.47
2023-04-25T21:37:51.220Z,4.22
2023-04-25T21:40:19.431Z,3.35
2023-04-25T21:42:51.360Z,3.42
2023-04-25T21:45:19.727Z,4.75
2023-04-25T21:47:47.704Z,3.65
2023-04-25T21:50:15.282Z,4.75
2023-04-25T21:52:42.402Z,4.25
2023-04-25T21:55:11.442Z,3.25
2023-04-25T21:57:38.420Z,3.03
2023-04-25T22:00:20.010Z,5.53
2023-04-25T22:02:48.303Z,3.47
2023-04-25T22:05:16.071Z,5.65
2023-04-25T22:07:43.117Z,3.20
2023-04-25T22:10:10.725Z,2.65
2023-04-25T22:12:37.666Z,3.20
2023-04-25T22:15:09.228Z,3.45
2023-04-25T22:17:36.244Z,5.72
2023-04-25T22:20:09.611Z,3.70
2023-04-25T22:22:36.603Z,3.60
2023-04-25T22:25:03.756Z,6.40
2023-04-25T22:27:30.710Z,8.15
2023-04-25T22:29:57.638Z,3.45
2023-04-25T22:32:25.586Z,4.00
2023-04-25T22:34:52.603Z,3.97
2023-04-25T22:37:19.616Z,4.05
2023-04-25T22:39:46.577Z,4.82
2023-04-25T22:42:13.509Z,3.45
2023-04-25T22:44:40.391Z,5.93
2023-04-25T22:47:08.052Z,4.28
2023-04-25T22:49:35.340Z,4.20
2023-04-25T22:52:04.109Z,3.72
2023-04-25T22:54:31.020Z,3.70
2023-04-25T22:56:57.957Z,3.50
2023-04-25T22:59:24.993Z,2.67
2023-04-25T23:01:52.364Z,5.72
2023-04-25T23:04:19.759Z,4.15
2023-04-25T23:06:46.998Z,4.07
2023-04-25T23:09:14.092Z,3.58
2023-04-25T23:11:43.874Z,3.15
2023-04-25T23:14:10.826Z,3.72
2023-04-25T23:16:37.884Z,6.57
2023-04-25T23:19:04.871Z,4.00
2023-04-25T23:21:31.989Z,4.25
2023-04-25T23:23:58.931Z,4.15
2023-04-25T23:26:26.239Z,5.38
2023-04-25T23:28:53.548Z,3.90
2023-04-25T23:31:20.900Z,4.57
2023-04-25T23:33:47.870Z,4.30
2023-04-25T23:36:21.890Z,4.78
2023-04-25T23:38:50.303Z,4.57
2023-04-25T23:41:18.045Z,5.20
2023-04-25T23:43:44.988Z,4.55
2023-04-25T23:46:12.445Z,5.63
2023-04-25T23:48:39.504Z,5.88
2023-04-25T23:51:06.716Z,5.95
2023-04-25T23:53:33.630Z,5.43
2023-04-25T23:56:00.711Z,6.28
2023-04-25T23:58:27.621Z,4.20
